sensor_id;sensor_type;location;lat;lon;timestamp;P1;durP1;ratioP1;P2;durP2;ratioP2
56667;SDS011;42542;48.360;10.958;2022-10-23T00:00:52;13.67;;;7.20;;
56667;SDS011;42542;48.360;10.958;2022-10-23T00:03:58;13.68;;;6.90;;
56667;SDS011;42542;48.360;10.958;2022-10-23T00:07:05;13.73;;;6.47;;
56667;SDS011;42542;48.360;10.958;2022-10-23T00:10:08;13.30;;;5.93;;
56667;SDS011;42542;48.360;10.958;2022-10-23T00:13:10;12.98;;;6.47;;
56667;SDS011;42542;48.360;10.958;2022-10-23T00:16:12;15.95;;;6.85;;
56667;SDS011;42542;48.360;10.958;2022-10-23T00:19:13;15.00;;;6.30;;
56667;SDS011;42542;48.360;10.958;2022-10-23T00:22:15;12.80;;;6.03;;
56667;SDS011;42542;48.360;10.958;2022-10-23T00:25:17;13.13;;;6.13;;
56667;SDS011;42542;48.360;10.958;2022-10-23T00:28:18;15.15;;;6.32;;
56667;SDS011;42542;48.360;10.958;2022-10-23T00:31:20;11.97;;;5.53;;
56667;SDS011;42542;48.360;10.958;2022-10-23T00:34:23;13.90;;;6.03;;
56667;SDS011;42542;48.360;10.958;2022-10-23T00:37:25;13.98;;;6.05;;
56667;SDS011;42542;48.360;10.958;2022-10-23T00:40:26;14.10;;;5.93;;
56667;SDS011;42542;48.360;10.958;2022-10-23T00:43:28;14.55;;;5.97;;
56667;SDS011;42542;48.360;10.958;2022-10-23T00:46:32;12.55;;;6.15;;
56667;SDS011;42542;48.360;10.958;2022-10-23T00:49:34;14.38;;;5.90;;
56667;SDS011;42542;48.360;10.958;2022-10-23T00:52:41;11.63;;;5.68;;
56667;SDS011;42542;48.360;10.958;2022-10-23T00:55:48;13.30;;;5.78;;
56667;SDS011;42542;48.360;10.958;2022-10-23T00:58:53;11.85;;;5.55;;
56667;SDS011;42542;48.360;10.958;2022-10-23T01:01:54;10.87;;;5.40;;
56667;SDS011;42542;48.360;10.958;2022-10-23T01:04:56;13.20;;;5.97;;
56667;SDS011;42542;48.360;10.958;2022-10-23T01:08:02;13.90;;;5.45;;
56667;SDS011;42542;48.360;10.958;2022-10-23T01:17:57;11.40;;;5.32;;
56667;SDS011;42542;48.360;10.958;2022-10-23T01:28:09;10.35;;;5.00;;
56667;SDS011;42542;48.360;10.958;2022-10-23T01:31:17;11.18;;;4.97;;
56667;SDS011;42542;48.360;10.958;2022-10-23T01:37:46;10.07;;;5.05;;
56667;SDS011;42542;48.360;10.958;2022-10-23T01:40:54;11.27;;;4.20;;
56667;SDS011;42542;48.360;10.958;2022-10-23T01:44:13;9.93;;;4.83;;
56667;SDS011;42542;48.360;10.958;2022-10-23T01:47:17;10.43;;;4.63;;
56667;SDS011;42542;48.360;10.958;2022-10-23T01:50:29;8.73;;;4.30;;
56667;SDS011;42542;48.360;10.958;2022-10-23T01:53:38;9.60;;;4.63;;
56667;SDS011;42542;48.360;10.958;2022-10-23T01:56:45;11.93;;;4.70;;
56667;SDS011;42542;48.360;10.958;2022-10-23T01:59:57;10.88;;;4.82;;
56667;SDS011;42542;48.360;10.958;2022-10-23T02:03:04;14.77;;;5.03;;
56667;SDS011;42542;48.360;10.958;2022-10-23T02:06:08;9.83;;;4.70;;
56667;SDS011;42542;48.360;10.958;2022-10-23T02:09:10;11.48;;;4.78;;
56667;SDS011;42542;48.360;10.958;2022-10-23T02:12:13;12.00;;;4.50;;
56667;SDS011;42542;48.360;10.958;2022-10-23T02:15:31;10.63;;;4.57;;
56667;SDS011;42542;48.360;10.958;2022-10-23T02:18:39;12.40;;;4.72;;
56667;SDS011;42542;48.360;10.958;2022-10-23T02:22:20;9.27;;;4.35;;
56667;SDS011;42542;48.360;10.958;2022-10-23T02:25:28;9.88;;;4.70;;
56667;SDS011;42542;48.360;10.958;2022-10-23T02:28:38;11.55;;;4.90;;
56667;SDS011;42542;48.360;10.958;2022-10-23T02:31:46;10.73;;;4.63;;
56667;SDS011;42542;48.360;10.958;2022-10-23T02:34:51;11.43;;;5.07;;
56667;SDS011;42542;48.360;10.958;2022-10-23T02:37:54;10.83;;;4.50;;
56667;SDS011;42542;48.360;10.958;2022-10-23T02:41:02;8.70;;;4.18;;
56667;SDS011;42542;48.360;10.958;2022-10-23T02:47:42;12.80;;;4.57;;
56667;SDS011;42542;48.360;10.958;2022-10-23T02:50:55;9.93;;;4.63;;
56667;SDS011;42542;48.360;10.958;2022-10-23T02:54:07;10.25;;;4.80;;
56667;SDS011;42542;48.360;10.958;2022-10-23T03:00:36;10.23;;;4.60;;
56667;SDS011;42542;48.360;10.958;2022-10-23T03:03:50;11.70;;;4.82;;
56667;SDS011;42542;48.360;10.958;2022-10-23T03:06:54;10.45;;;4.80;;
56667;SDS011;42542;48.360;10.958;2022-10-23T03:09:56;11.37;;;4.80;;
56667;SDS011;42542;48.360;10.958;2022-10-23T03:12:58;10.85;;;4.70;;
56667;SDS011;42542;48.360;10.958;2022-10-23T03:16:02;11.68;;;4.47;;
56667;SDS011;42542;48.360;10.958;2022-10-23T03:19:04;10.80;;;4.87;;
56667;SDS011;42542;48.360;10.958;2022-10-23T03:22:06;11.90;;;4.45;;
56667;SDS011;42542;48.360;10.958;2022-10-23T03:25:08;12.00;;;4.55;;
56667;SDS011;42542;48.360;10.958;2022-10-23T03:28:10;10.40;;;5.00;;
56667;SDS011;42542;48.360;10.958;2022-10-23T03:31:12;9.07;;;4.22;;
56667;SDS011;42542;48.360;10.958;2022-10-23T03:34:13;10.57;;;4.43;;
56667;SDS011;42542;48.360;10.958;2022-10-23T03:37:16;9.75;;;4.40;;
56667;SDS011;42542;48.360;10.958;2022-10-23T03:40:17;9.43;;;4.30;;
56667;SDS011;42542;48.360;10.958;2022-10-23T03:43:19;10.10;;;4.20;;
56667;SDS011;42542;48.360;10.958;2022-10-23T03:46:20;11.52;;;4.50;;
56667;SDS011;42542;48.360;10.958;2022-10-23T03:49:26;13.00;;;4.20;;
56667;SDS011;42542;48.360;10.958;2022-10-23T03:52:35;10.23;;;4.28;;
56667;SDS011;42542;48.360;10.958;2022-10-23T03:55:37;10.23;;;4.10;;
56667;SDS011;42542;48.360;10.958;2022-10-23T03:58:39;11.05;;;4.50;;
56667;SDS011;42542;48.360;10.958;2022-10-23T04:01:40;10.52;;;4.45;;
56667;SDS011;42542;48.360;10.958;2022-10-23T04:04:42;9.10;;;4.30;;
56667;SDS011;42542;48.360;10.958;2022-10-23T04:07:44;8.88;;;4.15;;
56667;SDS011;42542;48.360;10.958;2022-10-23T04:10:45;10.07;;;4.50;;
56667;SDS011;42542;48.360;10.958;2022-10-23T04:13:47;10.88;;;4.55;;
56667;SDS011;42542;48.360;10.958;2022-10-23T04:16:49;10.63;;;4.30;;
56667;SDS011;42542;48.360;10.958;2022-10-23T04:19:50;9.90;;;4.30;;
56667;SDS011;42542;48.360;10.958;2022-10-23T04:22:52;10.30;;;3.90;;
56667;SDS011;42542;48.360;10.958;2022-10-23T04:25:54;9.40;;;4.25;;
56667;SDS011;42542;48.360;10.958;2022-10-23T04:28:59;12.20;;;4.22;;
56667;SDS011;42542;48.360;10.958;2022-10-23T04:32:02;8.98;;;4.30;;
56667;SDS011;42542;48.360;10.958;2022-10-23T04:35:04;9.25;;;4.20;;
56667;SDS011;42542;48.360;10.958;2022-10-23T04:38:07;9.05;;;4.18;;
56667;SDS011;42542;48.360;10.958;2022-10-23T04:41:08;9.37;;;4.00;;
56667;SDS011;42542;48.360;10.958;2022-10-23T04:44:10;9.90;;;4.20;;
56667;SDS011;42542;48.360;10.958;2022-10-23T04:47:12;8.48;;;4.00;;
56667;SDS011;42542;48.360;10.958;2022-10-23T04:50:27;9.60;;;4.00;;
56667;SDS011;42542;48.360;10.958;2022-10-23T04:53:42;8.60;;;3.90;;
56667;SDS011;42542;48.360;10.958;2022-10-23T04:57:07;10.00;;;3.90;;
56667;SDS011;42542;48.360;10.958;2022-10-23T05:00:26;8.02;;;3.90;;
56667;SDS011;42542;48.360;10.958;2022-10-23T05:03:30;9.85;;;4.28;;
56667;SDS011;42542;48.360;10.958;2022-10-23T05:06:32;9.80;;;4.07;;
56667;SDS011;42542;48.360;10.958;2022-10-23T05:10:06;8.10;;;3.90;;
56667;SDS011;42542;48.360;10.958;2022-10-23T05:13:18;13.30;;;3.63;;
56667;SDS011;42542;48.360;10.958;2022-10-23T05:19:54;8.57;;;3.78;;
56667;SDS011;42542;48.360;10.958;2022-10-23T05:22:58;10.90;;;3.80;;
56667;SDS011;42542;48.360;10.958;2022-10-23T05:26:01;9.18;;;3.72;;
56667;SDS011;42542;48.360;10.958;2022-10-23T05:29:05;8.38;;;3.95;;
56667;SDS011;42542;48.360;10.958;2022-10-23T05:32:07;9.18;;;4.03;;
56667;SDS011;42542;48.360;10.958;2022-10-23T05:35:13;9.30;;;3.70;;
56667;SDS011;42542;48.360;10.958;2022-10-23T05:38:21;10.20;;;4.28;;
56667;SDS011;42542;48.360;10.958;2022-10-23T05:41:23;10.00;;;4.10;;
56667;SDS011;42542;48.360;10.958;2022-10-23T05:44:29;8.53;;;3.90;;
56667;SDS011;42542;48.360;10.958;2022-10-23T05:47:45;8.10;;;3.85;;
56667;SDS011;42542;48.360;10.958;2022-10-23T05:51:19;9.95;;;4.00;;
56667;SDS011;42542;48.360;10.958;2022-10-23T05:54:31;9.97;;;3.93;;
56667;SDS011;42542;48.360;10.958;2022-10-23T05:57:49;9.07;;;3.95;;
56667;SDS011;42542;48.360;10.958;2022-10-23T06:00:57;9.15;;;3.95;;
56667;SDS011;42542;48.360;10.958;2022-10-23T06:04:32;8.02;;;3.75;;
56667;SDS011;42542;48.360;10.958;2022-10-23T06:07:59;9.43;;;4.10;;
56667;SDS011;42542;48.360;10.958;2022-10-23T06:11:08;11.27;;;4.00;;
56667;SDS011;42542;48.360;10.958;2022-10-23T06:14:12;12.73;;;4.30;;
56667;SDS011;42542;48.360;10.958;2022-10-23T06:17:14;11.10;;;4.17;;
56667;SDS011;42542;48.360;10.958;2022-10-23T06:20:18;9.88;;;4.03;;
56667;SDS011;42542;48.360;10.958;2022-10-23T06:23:34;9.23;;;3.75;;
56667;SDS011;42542;48.360;10.958;2022-10-23T06:26:57;10.90;;;4.37;;
56667;SDS011;42542;48.360;10.958;2022-10-23T06:30:13;11.25;;;4.10;;
56667;SDS011;42542;48.360;10.958;2022-10-23T06:33:15;9.52;;;4.03;;
56667;SDS011;42542;48.360;10.958;2022-10-23T06:36:17;11.63;;;3.80;;
56667;SDS011;42542;48.360;10.958;2022-10-23T06:39:19;8.82;;;3.97;;
56667;SDS011;42542;48.360;10.958;2022-10-23T06:42:32;10.40;;;3.97;;
56667;SDS011;42542;48.360;10.958;2022-10-23T06:45:53;9.30;;;4.28;;
56667;SDS011;42542;48.360;10.958;2022-10-23T06:49:21;9.73;;;4.10;;
56667;SDS011;42542;48.360;10.958;2022-10-23T06:52:23;11.30;;;4.32;;
56667;SDS011;42542;48.360;10.958;2022-10-23T06:55:47;8.70;;;4.18;;
56667;SDS011;42542;48.360;10.958;2022-10-23T06:58:55;11.47;;;4.20;;
56667;SDS011;42542;48.360;10.958;2022-10-23T07:01:57;10.57;;;4.28;;
56667;SDS011;42542;48.360;10.958;2022-10-23T07:04:59;8.85;;;3.97;;
56667;SDS011;42542;48.360;10.958;2022-10-23T07:08:05;8.38;;;3.70;;
56667;SDS011;42542;48.360;10.958;2022-10-23T07:11:13;7.93;;;3.60;;
56667;SDS011;42542;48.360;10.958;2022-10-23T07:14:17;8.63;;;3.72;;
56667;SDS011;42542;48.360;10.958;2022-10-23T07:17:18;7.95;;;3.65;;
56667;SDS011;42542;48.360;10.958;2022-10-23T07:20:20;8.10;;;3.83;;
56667;SDS011;42542;48.360;10.958;2022-10-23T07:23:23;9.98;;;3.63;;
56667;SDS011;42542;48.360;10.958;2022-10-23T07:26:26;8.50;;;3.70;;
56667;SDS011;42542;48.360;10.958;2022-10-23T07:29:27;9.07;;;3.50;;
56667;SDS011;42542;48.360;10.958;2022-10-23T07:32:30;11.65;;;3.70;;
56667;SDS011;42542;48.360;10.958;2022-10-23T07:35:50;9.07;;;3.35;;
56667;SDS011;42542;48.360;10.958;2022-10-23T07:38:58;9.52;;;3.72;;
56667;SDS011;42542;48.360;10.958;2022-10-23T07:42:00;8.40;;;3.35;;
56667;SDS011;42542;48.360;10.958;2022-10-23T07:45:01;9.65;;;3.58;;
56667;SDS011;42542;48.360;10.958;2022-10-23T07:48:04;6.85;;;3.15;;
56667;SDS011;42542;48.360;10.958;2022-10-23T07:51:24;7.50;;;2.90;;
56667;SDS011;42542;48.360;10.958;2022-10-23T07:54:31;8.10;;;2.78;;
56667;SDS011;42542;48.360;10.958;2022-10-23T07:57:39;6.40;;;2.80;;
56667;SDS011;42542;48.360;10.958;2022-10-23T08:00:51;6.60;;;2.70;;
56667;SDS011;42542;48.360;10.958;2022-10-23T08:04:03;8.77;;;2.58;;
56667;SDS011;42542;48.360;10.958;2022-10-23T08:07:05;7.93;;;2.63;;
56667;SDS011;42542;48.360;10.958;2022-10-23T08:10:13;6.50;;;2.80;;
56667;SDS011;42542;48.360;10.958;2022-10-23T08:13:17;6.37;;;2.73;;
56667;SDS011;42542;48.360;10.958;2022-10-23T08:16:26;9.10;;;2.60;;
56667;SDS011;42542;48.360;10.958;2022-10-23T08:19:37;7.25;;;2.30;;
56667;SDS011;42542;48.360;10.958;2022-10-23T08:22:38;6.27;;;2.20;;
56667;SDS011;42542;48.360;10.958;2022-10-23T08:25:41;6.20;;;2.00;;
56667;SDS011;42542;48.360;10.958;2022-10-23T08:28:44;6.45;;;2.10;;
56667;SDS011;42542;48.360;10.958;2022-10-23T08:31:45;5.30;;;1.88;;
56667;SDS011;42542;48.360;10.958;2022-10-23T08:34:47;5.28;;;1.95;;
56667;SDS011;42542;48.360;10.958;2022-10-23T08:37:50;5.25;;;1.90;;
56667;SDS011;42542;48.360;10.958;2022-10-23T08:40:51;6.05;;;1.88;;
56667;SDS011;42542;48.360;10.958;2022-10-23T08:47:54;4.82;;;1.70;;
56667;SDS011;42542;48.360;10.958;2022-10-23T08:55:14;4.97;;;1.80;;
56667;SDS011;42542;48.360;10.958;2022-10-23T08:58:33;5.03;;;1.80;;
56667;SDS011;42542;48.360;10.958;2022-10-23T09:04:44;5.97;;;2.00;;
56667;SDS011;42542;48.360;10.958;2022-10-23T09:11:14;6.00;;;1.95;;
56667;SDS011;42542;48.360;10.958;2022-10-23T09:17:58;5.90;;;1.85;;
56667;SDS011;42542;48.360;10.958;2022-10-23T09:21:08;4.93;;;1.87;;
56667;SDS011;42542;48.360;10.958;2022-10-23T09:24:13;5.28;;;1.80;;
56667;SDS011;42542;48.360;10.958;2022-10-23T09:27:18;7.47;;;1.90;;
56667;SDS011;42542;48.360;10.958;2022-10-23T09:30:36;4.55;;;1.40;;
56667;SDS011;42542;48.360;10.958;2022-10-23T09:33:40;5.07;;;1.70;;
56667;SDS011;42542;48.360;10.958;2022-10-23T09:36:47;5.13;;;1.60;;
56667;SDS011;42542;48.360;10.958;2022-10-23T09:40:00;5.10;;;1.60;;
56667;SDS011;42542;48.360;10.958;2022-10-23T09:43:12;4.60;;;1.50;;
56667;SDS011;42542;48.360;10.958;2022-10-23T09:46:15;4.70;;;1.53;;
56667;SDS011;42542;48.360;10.958;2022-10-23T09:49:28;5.32;;;1.60;;
56667;SDS011;42542;48.360;10.958;2022-10-23T09:52:35;5.07;;;1.70;;
56667;SDS011;42542;48.360;10.958;2022-10-23T09:55:37;4.72;;;1.48;;
56667;SDS011;42542;48.360;10.958;2022-10-23T09:58:42;4.43;;;1.42;;
56667;SDS011;42542;48.360;10.958;2022-10-23T10:02:01;6.60;;;1.40;;
56667;SDS011;42542;48.360;10.958;2022-10-23T10:11:52;5.37;;;1.50;;
56667;SDS011;42542;48.360;10.958;2022-10-23T10:21:50;4.40;;;1.30;;
56667;SDS011;42542;48.360;10.958;2022-10-23T10:31:32;4.70;;;1.30;;
56667;SDS011;42542;48.360;10.958;2022-10-23T10:34:45;5.32;;;1.10;;
56667;SDS011;42542;48.360;10.958;2022-10-23T10:38:04;4.15;;;1.25;;
56667;SDS011;42542;48.360;10.958;2022-10-23T10:44:33;4.22;;;1.20;;
56667;SDS011;42542;48.360;10.958;2022-10-23T10:48:02;4.70;;;1.17;;
56667;SDS011;42542;48.360;10.958;2022-10-23T10:54:38;4.03;;;1.17;;
56667;SDS011;42542;48.360;10.958;2022-10-23T10:58:04;4.75;;;1.30;;
56667;SDS011;42542;48.360;10.958;2022-10-23T11:01:19;4.57;;;1.33;;
56667;SDS011;42542;48.360;10.958;2022-10-23T11:04:29;3.95;;;1.30;;
56667;SDS011;42542;48.360;10.958;2022-10-23T11:07:38;6.38;;;1.33;;
56667;SDS011;42542;48.360;10.958;2022-10-23T11:10:45;4.00;;;1.20;;
56667;SDS011;42542;48.360;10.958;2022-10-23T11:13:52;5.50;;;1.27;;
56667;SDS011;42542;48.360;10.958;2022-10-23T11:17:16;4.93;;;1.30;;
56667;SDS011;42542;48.360;10.958;2022-10-23T11:20:38;4.68;;;1.38;;
56667;SDS011;42542;48.360;10.958;2022-10-23T11:37:43;4.47;;;1.50;;
56667;SDS011;42542;48.360;10.958;2022-10-23T11:40:46;4.13;;;1.30;;
56667;SDS011;42542;48.360;10.958;2022-10-23T11:43:57;5.57;;;1.40;;
56667;SDS011;42542;48.360;10.958;2022-10-23T11:47:25;4.75;;;1.40;;
56667;SDS011;42542;48.360;10.958;2022-10-23T11:53:45;5.20;;;1.40;;
56667;SDS011;42542;48.360;10.958;2022-10-23T11:56:54;3.70;;;1.20;;
56667;SDS011;42542;48.360;10.958;2022-10-23T12:00:18;4.23;;;1.37;;
56667;SDS011;42542;48.360;10.958;2022-10-23T12:03:24;4.60;;;1.48;;
56667;SDS011;42542;48.360;10.958;2022-10-23T12:06:37;4.45;;;1.50;;
56667;SDS011;42542;48.360;10.958;2022-10-23T12:13:05;5.05;;;1.30;;
56667;SDS011;42542;48.360;10.958;2022-10-23T12:16:45;5.13;;;1.30;;
56667;SDS011;42542;48.360;10.958;2022-10-23T12:19:47;5.63;;;1.40;;
56667;SDS011;42542;48.360;10.958;2022-10-23T12:39:23;5.40;;;1.38;;
56667;SDS011;42542;48.360;10.958;2022-10-23T12:42:26;4.55;;;1.40;;
56667;SDS011;42542;48.360;10.958;2022-10-23T12:45:31;4.55;;;1.30;;
56667;SDS011;42542;48.360;10.958;2022-10-23T12:48:45;4.33;;;1.33;;
56667;SDS011;42542;48.360;10.958;2022-10-23T12:54:58;7.93;;;1.85;;
56667;SDS011;42542;48.360;10.958;2022-10-23T12:58:00;4.90;;;1.40;;
56667;SDS011;42542;48.360;10.958;2022-10-23T13:01:02;3.90;;;1.33;;
56667;SDS011;42542;48.360;10.958;2022-10-23T13:07:27;6.90;;;1.30;;
56667;SDS011;42542;48.360;10.958;2022-10-23T13:10:33;4.00;;;1.30;;
56667;SDS011;42542;48.360;10.958;2022-10-23T13:13:38;4.45;;;1.40;;
56667;SDS011;42542;48.360;10.958;2022-10-23T13:16:41;5.70;;;1.45;;
56667;SDS011;42542;48.360;10.958;2022-10-23T13:19:48;3.83;;;1.17;;
56667;SDS011;42542;48.360;10.958;2022-10-23T13:22:53;5.03;;;1.70;;
56667;SDS011;42542;48.360;10.958;2022-10-23T13:26:05;4.57;;;1.60;;
56667;SDS011;42542;48.360;10.958;2022-10-23T13:29:24;5.15;;;1.30;;
56667;SDS011;42542;48.360;10.958;2022-10-23T13:32:29;5.30;;;1.40;;
56667;SDS011;42542;48.360;10.958;2022-10-23T13:35:30;4.47;;;1.50;;
56667;SDS011;42542;48.360;10.958;2022-10-23T13:38:33;4.80;;;1.60;;
56667;SDS011;42542;48.360;10.958;2022-10-23T13:41:38;4.53;;;1.30;;
56667;SDS011;42542;48.360;10.958;2022-10-23T13:44:44;6.78;;;1.58;;
56667;SDS011;42542;48.360;10.958;2022-10-23T13:47:46;4.60;;;1.52;;
56667;SDS011;42542;48.360;10.958;2022-10-23T13:50:48;7.70;;;1.77;;
56667;SDS011;42542;48.360;10.958;2022-10-23T13:53:49;5.65;;;1.65;;
56667;SDS011;42542;48.360;10.958;2022-10-23T13:56:52;5.40;;;1.60;;
56667;SDS011;42542;48.360;10.958;2022-10-23T13:59:55;5.28;;;1.65;;
56667;SDS011;42542;48.360;10.958;2022-10-23T14:02:56;4.82;;;1.60;;
56667;SDS011;42542;48.360;10.958;2022-10-23T14:05:58;4.37;;;1.20;;
56667;SDS011;42542;48.360;10.958;2022-10-23T14:09:00;6.47;;;1.50;;
56667;SDS011;42542;48.360;10.958;2022-10-23T14:12:02;4.47;;;1.40;;
56667;SDS011;42542;48.360;10.958;2022-10-23T14:15:04;4.47;;;1.40;;
56667;SDS011;42542;48.360;10.958;2022-10-23T14:18:06;4.40;;;1.40;;
56667;SDS011;42542;48.360;10.958;2022-10-23T14:21:10;6.97;;;1.50;;
56667;SDS011;42542;48.360;10.958;2022-10-23T14:24:13;4.47;;;1.40;;
56667;SDS011;42542;48.360;10.958;2022-10-23T14:27:15;5.45;;;1.60;;
56667;SDS011;42542;48.360;10.958;2022-10-23T14:30:16;4.97;;;1.40;;
56667;SDS011;42542;48.360;10.958;2022-10-23T14:33:18;5.28;;;1.70;;
56667;SDS011;42542;48.360;10.958;2022-10-23T14:36:19;5.10;;;1.50;;
56667;SDS011;42542;48.360;10.958;2022-10-23T14:39:22;5.10;;;1.40;;
56667;SDS011;42542;48.360;10.958;2022-10-23T14:42:24;5.85;;;1.40;;
56667;SDS011;42542;48.360;10.958;2022-10-23T14:45:30;5.47;;;1.58;;
56667;SDS011;42542;48.360;10.958;2022-10-23T14:48:32;5.03;;;1.45;;
56667;SDS011;42542;48.360;10.958;2022-10-23T14:51:37;4.87;;;1.60;;
56667;SDS011;42542;48.360;10.958;2022-10-23T14:54:39;4.40;;;1.50;;
56667;SDS011;42542;48.360;10.958;2022-10-23T14:57:41;5.82;;;1.58;;
56667;SDS011;42542;48.360;10.958;2022-10-23T15:00:43;7.40;;;1.52;;
56667;SDS011;42542;48.360;10.958;2022-10-23T15:03:45;6.45;;;2.25;;
56667;SDS011;42542;48.360;10.958;2022-10-23T15:06:47;6.47;;;2.10;;
56667;SDS011;42542;48.360;10.958;2022-10-23T15:09:48;4.97;;;1.85;;
56667;SDS011;42542;48.360;10.958;2022-10-23T15:12:52;4.90;;;1.70;;
56667;SDS011;42542;48.360;10.958;2022-10-23T15:16:03;5.15;;;1.80;;
56667;SDS011;42542;48.360;10.958;2022-10-23T15:19:07;5.93;;;1.90;;
56667;SDS011;42542;48.360;10.958;2022-10-23T15:22:15;7.10;;;1.90;;
56667;SDS011;42542;48.360;10.958;2022-10-23T15:25:17;8.80;;;1.85;;
56667;SDS011;42542;48.360;10.958;2022-10-23T15:28:18;5.75;;;1.90;;
56667;SDS011;42542;48.360;10.958;2022-10-23T15:34:38;5.28;;;1.75;;
56667;SDS011;42542;48.360;10.958;2022-10-23T15:37:42;5.43;;;1.70;;
56667;SDS011;42542;48.360;10.958;2022-10-23T15:40:45;6.18;;;1.60;;
56667;SDS011;42542;48.360;10.958;2022-10-23T15:43:46;6.35;;;1.63;;
56667;SDS011;42542;48.360;10.958;2022-10-23T15:46:48;4.85;;;1.77;;
56667;SDS011;42542;48.360;10.958;2022-10-23T15:49:50;4.70;;;1.60;;
56667;SDS011;42542;48.360;10.958;2022-10-23T15:52:51;4.77;;;1.70;;
56667;SDS011;42542;48.360;10.958;2022-10-23T15:55:53;11.02;;;4.28;;
56667;SDS011;42542;48.360;10.958;2022-10-23T15:58:56;18.38;;;8.35;;
56667;SDS011;42542;48.360;10.958;2022-10-23T16:01:57;12.27;;;5.97;;
56667;SDS011;42542;48.360;10.958;2022-10-23T16:04:59;13.18;;;5.90;;
56667;SDS011;42542;48.360;10.958;2022-10-23T16:08:01;24.97;;;12.73;;
56667;SDS011;42542;48.360;10.958;2022-10-23T16:11:03;20.88;;;10.15;;
56667;SDS011;42542;48.360;10.958;2022-10-23T16:14:12;20.25;;;10.02;;
56667;SDS011;42542;48.360;10.958;2022-10-23T16:17:16;22.73;;;11.73;;
56667;SDS011;42542;48.360;10.958;2022-10-23T16:20:19;19.10;;;9.73;;
56667;SDS011;42542;48.360;10.958;2022-10-23T16:23:21;11.80;;;6.20;;
56667;SDS011;42542;48.360;10.958;2022-10-23T16:26:23;14.23;;;7.28;;
56667;SDS011;42542;48.360;10.958;2022-10-23T16:29:25;12.93;;;6.72;;
56667;SDS011;42542;48.360;10.958;2022-10-23T16:32:29;10.52;;;6.07;;
56667;SDS011;42542;48.360;10.958;2022-10-23T16:35:31;9.55;;;5.22;;
56667;SDS011;42542;48.360;10.958;2022-10-23T16:38:42;9.83;;;3.90;;
56667;SDS011;42542;48.360;10.958;2022-10-23T16:41:43;8.68;;;3.40;;
56667;SDS011;42542;48.360;10.958;2022-10-23T16:44:50;7.57;;;3.10;;
56667;SDS011;42542;48.360;10.958;2022-10-23T16:47:52;7.53;;;3.35;;
56667;SDS011;42542;48.360;10.958;2022-10-23T16:50:54;7.28;;;3.20;;
56667;SDS011;42542;48.360;10.958;2022-10-23T16:53:56;8.33;;;3.10;;
56667;SDS011;42542;48.360;10.958;2022-10-23T16:56:58;8.82;;;3.05;;
56667;SDS011;42542;48.360;10.958;2022-10-23T16:59:59;6.43;;;2.65;;
56667;SDS011;42542;48.360;10.958;2022-10-23T17:03:02;8.07;;;3.10;;
56667;SDS011;42542;48.360;10.958;2022-10-23T17:06:05;6.80;;;2.78;;
56667;SDS011;42542;48.360;10.958;2022-10-23T17:09:11;6.93;;;2.80;;
56667;SDS011;42542;48.360;10.958;2022-10-23T17:12:13;6.50;;;3.03;;
56667;SDS011;42542;48.360;10.958;2022-10-23T17:15:15;8.60;;;3.13;;
56667;SDS011;42542;48.360;10.958;2022-10-23T17:18:17;10.48;;;5.10;;
56667;SDS011;42542;48.360;10.958;2022-10-23T17:21:19;14.70;;;7.60;;
56667;SDS011;42542;48.360;10.958;2022-10-23T17:24:22;14.37;;;6.73;;
56667;SDS011;42542;48.360;10.958;2022-10-23T17:27:24;11.90;;;6.72;;
56667;SDS011;42542;48.360;10.958;2022-10-23T17:30:25;15.10;;;8.55;;
56667;SDS011;42542;48.360;10.958;2022-10-23T17:33:27;16.27;;;8.32;;
56667;SDS011;42542;48.360;10.958;2022-10-23T17:36:29;17.35;;;7.60;;
56667;SDS011;42542;48.360;10.958;2022-10-23T17:39:32;12.83;;;7.70;;
56667;SDS011;42542;48.360;10.958;2022-10-23T17:42:34;13.45;;;7.30;;
56667;SDS011;42542;48.360;10.958;2022-10-23T17:45:35;14.63;;;7.53;;
56667;SDS011;42542;48.360;10.958;2022-10-23T17:48:37;14.43;;;8.02;;
56667;SDS011;42542;48.360;10.958;2022-10-23T17:51:40;14.07;;;7.03;;
56667;SDS011;42542;48.360;10.958;2022-10-23T17:54:42;13.83;;;6.80;;
56667;SDS011;42542;48.360;10.958;2022-10-23T17:57:43;12.88;;;6.55;;
56667;SDS011;42542;48.360;10.958;2022-10-23T18:00:45;13.85;;;6.53;;
56667;SDS011;42542;48.360;10.958;2022-10-23T18:03:47;20.80;;;6.55;;
56667;SDS011;42542;48.360;10.958;2022-10-23T18:06:50;11.68;;;6.10;;
56667;SDS011;42542;48.360;10.958;2022-10-23T18:09:53;13.33;;;6.17;;
56667;SDS011;42542;48.360;10.958;2022-10-23T18:12:55;13.30;;;6.25;;
56667;SDS011;42542;48.360;10.958;2022-10-23T18:16:00;13.93;;;6.88;;
56667;SDS011;42542;48.360;10.958;2022-10-23T18:19:06;14.10;;;6.95;;
56667;SDS011;42542;48.360;10.958;2022-10-23T18:22:08;14.10;;;6.30;;
56667;SDS011;42542;48.360;10.958;2022-10-23T18:25:10;10.87;;;5.87;;
56667;SDS011;42542;48.360;10.958;2022-10-23T18:28:12;10.77;;;5.82;;
56667;SDS011;42542;48.360;10.958;2022-10-23T18:31:14;12.20;;;5.45;;
56667;SDS011;42542;48.360;10.958;2022-10-23T18:34:18;11.15;;;5.32;;
56667;SDS011;42542;48.360;10.958;2022-10-23T18:37:21;9.45;;;5.05;;
56667;SDS011;42542;48.360;10.958;2022-10-23T18:40:23;10.50;;;4.20;;
56667;SDS011;42542;48.360;10.958;2022-10-23T18:43:28;10.13;;;4.72;;
56667;SDS011;42542;48.360;10.958;2022-10-23T18:46:44;10.18;;;4.88;;
56667;SDS011;42542;48.360;10.958;2022-10-23T18:49:46;11.60;;;4.90;;
56667;SDS011;42542;48.360;10.958;2022-10-23T18:52:48;12.93;;;5.50;;
56667;SDS011;42542;48.360;10.958;2022-10-23T18:55:49;12.00;;;5.87;;
56667;SDS011;42542;48.360;10.958;2022-10-23T18:59:01;13.00;;;6.10;;
56667;SDS011;42542;48.360;10.958;2022-10-23T19:02:03;11.80;;;6.07;;
56667;SDS011;42542;48.360;10.958;2022-10-23T19:05:06;13.80;;;7.00;;
56667;SDS011;42542;48.360;10.958;2022-10-23T19:08:08;13.85;;;6.75;;
56667;SDS011;42542;48.360;10.958;2022-10-23T19:11:10;14.43;;;7.10;;
56667;SDS011;42542;48.360;10.958;2022-10-23T19:14:13;12.30;;;6.18;;
56667;SDS011;42542;48.360;10.958;2022-10-23T19:17:15;10.32;;;5.63;;
56667;SDS011;42542;48.360;10.958;2022-10-23T19:20:19;11.00;;;5.38;;
56667;SDS011;42542;48.360;10.958;2022-10-23T19:23:22;10.50;;;5.22;;
56667;SDS011;42542;48.360;10.958;2022-10-23T19:26:25;10.90;;;5.30;;
56667;SDS011;42542;48.360;10.958;2022-10-23T19:29:27;9.70;;;4.75;;
56667;SDS011;42542;48.360;10.958;2022-10-23T19:32:29;10.82;;;5.00;;
56667;SDS011;42542;48.360;10.958;2022-10-23T19:35:31;12.35;;;4.88;;
56667;SDS011;42542;48.360;10.958;2022-10-23T19:38:32;10.38;;;4.93;;
56667;SDS011;42542;48.360;10.958;2022-10-23T19:41:35;9.30;;;4.20;;
56667;SDS011;42542;48.360;10.958;2022-10-23T19:44:36;9.57;;;4.40;;
56667;SDS011;42542;48.360;10.958;2022-10-23T19:47:38;42.90;;;22.08;;
56667;SDS011;42542;48.360;10.958;2022-10-23T19:50:41;19.98;;;9.80;;
56667;SDS011;42542;48.360;10.958;2022-10-23T19:53:43;13.68;;;5.97;;
56667;SDS011;42542;48.360;10.958;2022-10-23T19:56:45;10.97;;;5.50;;
56667;SDS011;42542;48.360;10.958;2022-10-23T19:59:50;10.70;;;5.15;;
56667;SDS011;42542;48.360;10.958;2022-10-23T20:02:52;12.85;;;5.95;;
56667;SDS011;42542;48.360;10.958;2022-10-23T20:05:55;12.65;;;5.10;;
56667;SDS011;42542;48.360;10.958;2022-10-23T20:08:57;11.32;;;4.80;;
56667;SDS011;42542;48.360;10.958;2022-10-23T20:11:58;10.90;;;5.07;;
56667;SDS011;42542;48.360;10.958;2022-10-23T20:15:00;10.77;;;4.90;;